Terminal Aerodrome Forecast
Issued by NWS

Home | Current Version | Previous Version | Text Only | Print | Product List | Glossary On
Versions: 1 2 3 4 5 6 7 8 9 10 11 12 13 14 15 16 17 18 19 20 21 22 23 24 25 26 27 28 29 30
198
FTUS41 KOKX 241310 AAA
TAFGON
TAF AMD
KGON 241310Z 2413/2512 20009KT P6SM BKN120
     FM241600 21012KT P6SM BKN080
     FM241800 21013G18KT P6SM VCSH OVC040
     FM242000 23014G22KT P6SM OVC040
     FM250500 24007KT P6SM SCT040 BKN080=

USA.gov is the U.S. government's official web portal to all federal, state and local government web resources and services.